createdAt,value
2017-02-15T00:00:13.695Z,1024.51
2017-02-15T00:01:18.852Z,1024.54
2017-02-15T00:02:24.019Z,1024.53
2017-02-15T00:03:29.193Z,1024.51
2017-02-15T00:04:35.310Z,1024.52
2017-02-15T00:05:40.483Z,1024.5
2017-02-15T00:06:46.639Z,1024.51
2017-02-15T00:07:51.802Z,1024.49
2017-02-15T00:08:57.928Z,1024.46
2017-02-15T00:10:04.017Z,1024.52
2017-02-15T00:11:09.231Z,1024.51
2017-02-15T00:12:15.397Z,1024.48
2017-02-15T00:13:21.547Z,1024.46
2017-02-15T00:14:27.782Z,1024.46
2017-02-15T00:15:33.883Z,1024.48
2017-02-15T00:16:39.935Z,1024.5
2017-02-15T00:17:46.105Z,1024.53
2017-02-15T00:18:50.319Z,1024.49
2017-02-15T00:19:56.439Z,1024.51
2017-02-15T00:21:02.571Z,1024.48
2017-02-15T00:22:08.668Z,1024.45
2017-02-15T00:23:14.852Z,1024.45
2017-02-15T00:24:21.000Z,1024.46
2017-02-15T00:25:27.102Z,1024.47
2017-02-15T00:26:32.266Z,1024.43
2017-02-15T00:27:38.431Z,1024.43
2017-02-15T00:28:43.649Z,1024.44
2017-02-15T00:29:49.783Z,1024.43
2017-02-15T00:30:54.949Z,1024.45
2017-02-15T00:32:01.162Z,1024.48
2017-02-15T00:33:06.375Z,1024.47
2017-02-15T00:34:12.755Z,1024.47
2017-02-15T00:35:18.870Z,1024.45
2017-02-15T00:36:24.010Z,1024.46
2017-02-15T00:38:35.501Z,1024.5
2017-02-15T00:39:41.624Z,1024.54
2017-02-15T00:40:47.737Z,1024.55
2017-02-15T00:41:52.926Z,1024.5
2017-02-15T00:42:59.094Z,1024.53
2017-02-15T00:44:04.298Z,1024.51
2017-02-15T00:45:10.406Z,1024.52
2017-02-15T00:46:15.604Z,1024.53
2017-02-15T00:47:20.758Z,1024.49
2017-02-15T00:48:26.910Z,1024.49
2017-02-15T00:49:33.088Z,1024.49
2017-02-15T00:50:39.227Z,1024.49
2017-02-15T00:51:45.981Z,1024.51
2017-02-15T00:52:51.184Z,1024.53
2017-02-15T00:53:57.326Z,1024.49
2017-02-15T00:55:03.465Z,1024.46
2017-02-15T00:56:08.732Z,1024.45
2017-02-15T00:57:13.924Z,1024.48
2017-02-15T00:58:17.134Z,1024.49
2017-02-15T00:59:23.263Z,1024.45
2017-02-15T01:00:29.435Z,1024.51
2017-02-15T01:01:35.574Z,1024.51
2017-02-15T01:02:41.754Z,1024.5
2017-02-15T01:03:46.948Z,1024.49
2017-02-15T01:04:53.123Z,1024.5
2017-02-15T01:05:57.342Z,1024.5
2017-02-15T01:07:02.583Z,1024.49
2017-02-15T01:08:08.778Z,1024.45
2017-02-15T01:09:13.970Z,1024.52
2017-02-15T01:10:19.142Z,1024.52
2017-02-15T01:11:24.267Z,1024.49
2017-02-15T01:12:29.458Z,1024.49
2017-02-15T01:13:33.579Z,1024.52
2017-02-15T01:14:39.685Z,1024.53
2017-02-15T01:15:44.860Z,1024.49
2017-02-15T01:16:51.016Z,1024.55
2017-02-15T01:17:57.153Z,1024.55
2017-02-15T01:19:02.301Z,1024.55
2017-02-15T01:20:07.516Z,1024.56
2017-02-15T01:21:13.663Z,1024.52
2017-02-15T01:22:17.975Z,1024.56
2017-02-15T01:23:23.094Z,1024.55
2017-02-15T01:24:27.340Z,1024.52
2017-02-15T01:25:33.485Z,1024.54
2017-02-15T01:26:38.692Z,1024.58
2017-02-15T01:27:44.818Z,1024.59
2017-02-15T01:28:49.022Z,1024.57
2017-02-15T01:29:54.158Z,1024.57
2017-02-15T01:30:59.352Z,1024.61
2017-02-15T01:32:05.546Z,1024.55
2017-02-15T01:33:11.650Z,1024.57
2017-02-15T01:34:17.768Z,1024.56
2017-02-15T01:35:22.898Z,1024.59
2017-02-15T01:36:28.148Z,1024.59
2017-02-15T01:37:33.329Z,1024.59
2017-02-15T01:38:43.794Z,1024.57
2017-02-15T01:39:49.924Z,1024.59
2017-02-15T01:40:56.083Z,1024.55
2017-02-15T01:42:00.296Z,1024.55
2017-02-15T01:43:05.456Z,1024.51
2017-02-15T01:44:11.614Z,1024.47
2017-02-15T01:45:17.766Z,1024.51
2017-02-15T01:46:23.877Z,1024.47
2017-02-15T01:47:29.986Z,1024.41
2017-02-15T01:48:35.136Z,1024.44
2017-02-15T01:49:40.363Z,1024.46
2017-02-15T01:50:46.624Z,1024.43
2017-02-15T01:51:52.832Z,1024.46
2017-02-15T01:52:59.575Z,1024.48
2017-02-15T01:54:05.736Z,1024.45
2017-02-15T01:55:11.845Z,1024.4
2017-02-15T01:56:17.954Z,1024.37
2017-02-15T01:57:23.179Z,1024.41
2017-02-15T01:58:29.413Z,1024.39
2017-02-15T05:14:00.151Z,1025.01
2017-02-15T06:38:21.646Z,1025.22
2017-02-15T06:39:26.807Z,1025.26
2017-02-15T06:40:30.855Z,1025.27
2017-02-15T06:41:35.961Z,1025.28
2017-02-15T06:42:42.133Z,1025.35
2017-02-15T06:43:48.330Z,1025.33
2017-02-15T06:44:53.460Z,1025.38
2017-02-15T06:45:58.609Z,1025.35
2017-02-15T06:47:04.687Z,1025.34
2017-02-15T06:48:08.843Z,1025.37
2017-02-15T06:49:13.967Z,1025.33
2017-02-15T06:50:18.115Z,1025.41
2017-02-15T06:51:22.284Z,1025.39
2017-02-15T06:52:23.516Z,1025.41
2017-02-15T06:53:29.612Z,1025.42
2017-02-15T06:54:35.693Z,1025.45
2017-02-15T06:55:40.821Z,1025.45
2017-02-15T06:56:45.953Z,1025.42
2017-02-15T06:57:51.078Z,1025.42
2017-02-15T06:58:56.177Z,1025.45
2017-02-15T07:00:02.329Z,1025.44
2017-02-15T07:01:07.424Z,1025.45
2017-02-15T07:02:13.530Z,1025.47
2017-02-15T07:03:19.618Z,1025.49
2017-02-15T07:04:24.748Z,1025.5
2017-02-15T07:05:29.872Z,1025.49
2017-02-15T07:06:33.060Z,1025.5
2017-02-15T07:07:36.256Z,1025.51
2017-02-15T07:08:42.342Z,1025.52
2017-02-15T07:09:47.469Z,1025.54
2017-02-15T07:10:53.546Z,1025.56
2017-02-15T07:11:59.648Z,1025.54
2017-02-15T07:13:05.738Z,1025.59
2017-02-15T07:14:10.874Z,1025.56
2017-02-15T07:15:16.976Z,1025.59
2017-02-15T07:16:23.103Z,1025.64
2017-02-15T07:17:29.318Z,1025.62
2017-02-15T07:18:34.414Z,1025.61
2017-02-15T07:19:40.566Z,1025.63
2017-02-15T07:20:46.626Z,1025.63
2017-02-15T07:21:50.795Z,1025.66
2017-02-15T07:22:56.884Z,1025.69
2017-02-15T07:24:01.013Z,1025.7
2017-02-15T07:25:05.211Z,1025.7
2017-02-15T07:26:11.303Z,1025.71
2017-02-15T07:27:16.446Z,1025.7
2017-02-15T07:28:22.549Z,1025.79
2017-02-15T07:29:28.663Z,1025.75
2017-02-15T07:30:34.749Z,1025.72
2017-02-15T07:31:40.843Z,1025.74
2017-02-15T07:32:46.945Z,1025.78
2017-02-15T07:33:53.046Z,1025.75
2017-02-15T07:34:58.214Z,1025.81
2017-02-15T07:36:03.303Z,1025.8
2017-02-15T07:37:09.406Z,1025.83
2017-02-15T07:38:15.503Z,1025.84
2017-02-15T07:39:21.602Z,1025.83
2017-02-15T07:40:27.688Z,1025.82
2017-02-15T07:41:32.820Z,1025.85
2017-02-15T07:42:38.920Z,1025.84
2017-02-15T07:43:45.046Z,1025.86
2017-02-15T07:44:50.167Z,1025.86
2017-02-15T07:45:56.269Z,1025.88
2017-02-15T07:47:01.408Z,1025.87
2017-02-15T07:48:07.504Z,1025.87
2017-02-15T07:49:13.601Z,1025.91
2017-02-15T07:50:19.695Z,1025.91
2017-02-15T07:51:25.790Z,1025.91
2017-02-15T07:52:31.893Z,1025.86
2017-02-15T07:53:38.032Z,1025.87
2017-02-15T07:54:43.148Z,1025.89
2017-02-15T07:55:48.278Z,1025.85
2017-02-15T07:56:54.357Z,1025.87
2017-02-15T07:57:58.536Z,1025.86
2017-02-15T07:59:03.742Z,1025.85
2017-02-15T08:00:09.844Z,1025.85
2017-02-15T08:01:15.952Z,1025.86
2017-02-15T08:02:22.108Z,1025.87
2017-02-15T08:03:28.224Z,1025.9
2017-02-15T08:04:34.326Z,1025.9
2017-02-15T08:05:38.489Z,1025.94
2017-02-15T08:06:44.604Z,1025.98
2017-02-15T08:07:49.743Z,1025.97
2017-02-15T08:08:55.858Z,1025.94
2017-02-15T08:10:01.089Z,1025.93
2017-02-15T08:11:04.188Z,1025.95
2017-02-15T08:12:10.294Z,1025.96
2017-02-15T08:13:16.438Z,1025.97
2017-02-15T08:14:22.538Z,1025.95
2017-02-15T08:15:26.690Z,1025.95
2017-02-15T08:16:30.924Z,1025.95
2017-02-15T08:17:37.016Z,1025.95
2017-02-15T08:18:43.125Z,1025.99
2017-02-15T08:19:49.228Z,1026.02
2017-02-15T08:20:54.373Z,1026.01
2017-02-15T08:21:58.562Z,1026.03
2017-02-15T08:23:02.737Z,1026.07
2017-02-15T08:24:07.890Z,1026.02
2017-02-15T08:25:13.988Z,1026.04
2017-02-15T08:26:19.127Z,1026
2017-02-15T08:27:25.227Z,1026
2017-02-15T08:28:30.378Z,1026.02
2017-02-15T08:29:36.494Z,1025.98
2017-02-15T08:30:41.633Z,1026.02
2017-02-15T08:31:47.743Z,1025.97
2017-02-15T08:32:52.880Z,1025.99
2017-02-15T08:33:58.988Z,1026.03
2017-02-15T08:35:05.096Z,1026.02
2017-02-15T08:36:11.222Z,1026.02
2017-02-15T08:37:16.327Z,1026
2017-02-15T08:39:27.574Z,1025.94
2017-02-15T08:40:33.692Z,1025.97
2017-02-15T08:41:38.834Z,1025.95
2017-02-15T08:42:43.970Z,1025.93
2017-02-15T08:43:50.075Z,1025.95
2017-02-15T08:44:53.243Z,1025.97
2017-02-15T08:45:57.391Z,1025.98
2017-02-15T08:47:02.568Z,1026
2017-02-15T08:48:06.678Z,1026.01
2017-02-15T08:49:11.787Z,1026.06
2017-02-15T08:50:17.931Z,1026.03
2017-02-15T08:51:23.082Z,1026.04
2017-02-15T08:52:29.164Z,1026.11
2017-02-15T08:53:34.347Z,1026.14
2017-02-15T08:54:40.446Z,1026.16
2017-02-15T08:55:44.613Z,1026.19
2017-02-15T08:56:49.757Z,1026.15
2017-02-15T08:57:54.886Z,1026.18
2017-02-15T08:59:00.021Z,1026.22
2017-02-15T09:00:03.199Z,1026.23
2017-02-15T09:01:08.320Z,1026.26
2017-02-15T09:02:14.421Z,1026.26
2017-02-15T09:03:20.527Z,1026.28
2017-02-15T09:04:24.730Z,1026.28
2017-02-15T09:05:28.860Z,1026.31
2017-02-15T09:06:33.967Z,1026.31
2017-02-15T09:07:40.077Z,1026.32
2017-02-15T09:08:46.204Z,1026.34
2017-02-15T09:09:51.347Z,1026.29
2017-02-15T09:10:56.461Z,1026.32
2017-02-15T09:12:02.577Z,1026.3
2017-02-15T09:13:08.721Z,1026.29
2017-02-15T09:14:14.842Z,1026.25
2017-02-15T09:15:20.954Z,1026.29
2017-02-15T09:16:27.065Z,1026.29
2017-02-15T09:17:33.179Z,1026.25
2017-02-15T09:18:37.327Z,1026.22
2017-02-15T09:19:41.504Z,1026.23
2017-02-15T09:20:46.650Z,1026.25
2017-02-15T09:21:52.754Z,1026.28
2017-02-15T09:22:58.881Z,1026.28
2017-02-15T09:24:04.012Z,1026.25
2017-02-15T09:25:10.125Z,1026.28
2017-02-15T09:26:15.318Z,1026.26
2017-02-15T09:27:20.442Z,1026.22
2017-02-15T09:28:26.551Z,1026.21
2017-02-15T09:29:31.692Z,1026.22
2017-02-15T09:30:37.806Z,1026.24
2017-02-15T09:31:42.952Z,1026.24
2017-02-15T09:32:48.125Z,1026.26
2017-02-15T09:33:53.267Z,1026.32
2017-02-15T09:34:59.374Z,1026.28
2017-02-15T09:36:05.611Z,1026.25
2017-02-15T09:37:09.742Z,1026.23
2017-02-15T09:38:15.877Z,1026.15
2017-02-15T09:39:20.998Z,1026.14
2017-02-15T09:40:27.118Z,1026.12
2017-02-15T09:41:33.398Z,1026.12
2017-02-15T09:42:39.512Z,1026.08
2017-02-15T09:43:45.615Z,1026.07
2017-02-15T09:44:50.732Z,1026.11
2017-02-15T09:45:55.879Z,1026.12
2017-02-15T09:47:01.987Z,1026.11
2017-02-15T09:48:07.102Z,1026.08
2017-02-15T09:49:11.287Z,1026.11
2017-02-15T09:50:16.403Z,1026.09
2017-02-15T09:51:19.632Z,1026.15
2017-02-15T09:52:23.901Z,1026.08
2017-02-15T09:53:29.055Z,1026.12
2017-02-15T09:54:34.188Z,1026.13
2017-02-15T09:55:39.333Z,1026.12
2017-02-15T09:56:44.448Z,1026.09
2017-02-15T09:57:49.594Z,1026.12
2017-02-15T09:58:55.707Z,1026.17
2017-02-15T10:00:00.850Z,1026.19
2017-02-15T10:01:06.958Z,1026.31
2017-02-15T10:02:12.105Z,1026.31
2017-02-15T10:03:18.215Z,1026.3
2017-02-15T10:04:24.331Z,1026.21
2017-02-15T10:05:28.579Z,1026.16
2017-02-15T10:06:33.702Z,1026.12
2017-02-15T10:07:38.813Z,1026.1
2017-02-15T10:08:43.929Z,1026.11
2017-02-15T10:09:48.108Z,1026.07
2017-02-15T10:10:54.225Z,1026.09
2017-02-15T10:12:00.347Z,1026.08
2017-02-15T10:13:06.495Z,1026.08
2017-02-15T10:14:12.607Z,1026.1
2017-02-15T10:15:15.873Z,1026.12
2017-02-15T10:16:20.057Z,1026.11
2017-02-15T10:17:26.164Z,1026.1
2017-02-15T10:18:31.302Z,1026.12
2017-02-15T10:19:36.444Z,1026.09
2017-02-15T10:20:41.601Z,1026.12
2017-02-15T10:21:46.731Z,1026.1
2017-02-15T10:22:51.876Z,1026.12
2017-02-15T10:23:57.036Z,1026.13
2017-02-15T10:25:03.158Z,1026.12
2017-02-15T10:26:06.345Z,1026.13
2017-02-15T10:27:11.457Z,1026.13
2017-02-15T10:28:17.571Z,1026.12
2017-02-15T10:29:22.682Z,1026.08
2017-02-15T10:30:28.832Z,1026.11
2017-02-15T10:31:33.986Z,1026.07
2017-02-15T10:32:40.095Z,1026.07
2017-02-15T10:33:46.204Z,1026.1
2017-02-15T10:34:52.322Z,1026.07
2017-02-15T10:35:57.460Z,1025.96
2017-02-15T10:37:01.639Z,1025.99
2017-02-15T10:38:06.793Z,1025.97
2017-02-15T10:39:11.928Z,1025.92
2017-02-15T10:40:18.108Z,1025.92
2017-02-15T10:41:23.255Z,1025.94
2017-02-15T10:42:27.410Z,1025.95
2017-02-15T10:43:31.583Z,1025.98
2017-02-15T10:44:37.691Z,1025.95
2017-02-15T10:45:42.814Z,1025.96
2017-02-15T10:46:47.958Z,1026
2017-02-15T10:47:53.113Z,1025.97
2017-02-15T10:48:59.250Z,1025.92
2017-02-15T10:50:04.386Z,1025.91
2017-02-15T10:51:09.527Z,1025.87
2017-02-15T10:52:13.698Z,1025.85
2017-02-15T10:53:19.854Z,1025.83
2017-02-15T10:54:24.025Z,1025.82
2017-02-15T10:55:30.148Z,1025.81
2017-02-15T10:56:36.268Z,1025.77
2017-02-15T10:57:42.382Z,1025.78
2017-02-15T10:58:48.502Z,1025.74
2017-02-15T10:59:54.610Z,1025.79
2017-02-15T11:01:00.747Z,1025.78
2017-02-15T11:02:06.840Z,1025.73
2017-02-15T11:03:11.025Z,1025.75
2017-02-15T11:04:17.138Z,1025.71
2017-02-15T11:05:23.261Z,1025.71
2017-02-15T11:06:28.385Z,1025.71
2017-02-15T11:07:33.526Z,1025.69
2017-02-15T11:08:38.678Z,1025.65
2017-02-15T11:09:44.789Z,1025.64
2017-02-15T11:10:51.012Z,1025.66
2017-02-15T11:11:56.046Z,1025.65
2017-02-15T11:13:01.196Z,1025.63
2017-02-15T11:14:05.406Z,1025.61
2017-02-15T11:15:10.535Z,1025.63
2017-02-15T11:16:15.672Z,1025.61
2017-02-15T11:17:19.825Z,1025.61
2017-02-15T11:18:25.948Z,1025.68
2017-02-15T11:19:31.077Z,1025.67
2017-02-15T11:20:36.224Z,1025.66
2017-02-15T11:21:42.349Z,1025.62
2017-02-15T11:22:47.468Z,1025.6
2017-02-15T11:23:58.927Z,1025.58
2017-02-15T11:25:23.432Z,1025.55
2017-02-15T15:54:58.263Z,1024
2017-02-15T15:56:04.006Z,1023.92
2017-02-15T15:57:09.221Z,1023.93
2017-02-15T15:58:15.312Z,1023.94
2017-02-15T15:59:21.519Z,1023.94
2017-02-15T16:00:25.687Z,1023.96
2017-02-15T16:01:31.789Z,1023.92
2017-02-15T16:02:36.909Z,1023.96
2017-02-15T16:03:43.010Z,1023.97
2017-02-15T16:04:48.146Z,1023.95
2017-02-15T16:05:54.273Z,1023.92
2017-02-15T16:07:00.400Z,1023.95
2017-02-15T16:08:06.624Z,1023.95
2017-02-15T16:09:10.814Z,1023.96
2017-02-15T16:10:14.938Z,1023.98
2017-02-15T16:11:21.071Z,1023.94
2017-02-15T16:12:27.180Z,1023.9
2017-02-15T16:13:31.388Z,1023.94
2017-02-15T16:14:37.539Z,1023.92
2017-02-15T16:15:43.638Z,1023.95
2017-02-15T16:16:49.792Z,1023.95
2017-02-15T16:17:54.954Z,1023.92
2017-02-15T16:19:01.056Z,1023.97
2017-02-15T16:20:05.245Z,1023.96
2017-02-15T16:21:11.333Z,1023.96
2017-02-15T16:22:16.512Z,1023.95
2017-02-15T16:23:22.699Z,1023.95
2017-02-15T16:24:28.812Z,1023.93
2017-02-15T16:25:33.947Z,1023.94
2017-02-15T16:26:39.048Z,1023.94
2017-02-15T16:27:45.153Z,1023.92
2017-02-15T16:28:49.288Z,1023.9
2017-02-15T16:29:52.488Z,1023.89
2017-02-15T16:30:58.597Z,1023.87
2017-02-15T16:32:04.715Z,1023.88
2017-02-15T16:33:10.813Z,1023.88
2017-02-15T16:34:15.921Z,1023.88
2017-02-15T16:35:20.081Z,1023.88
2017-02-15T16:36:24.241Z,1023.92
2017-02-15T16:37:30.382Z,1023.9
2017-02-15T16:38:35.594Z,1023.92
2017-02-15T16:39:40.620Z,1023.91
2017-02-15T16:40:46.733Z,1023.91
2017-02-15T16:41:52.009Z,1023.85
2017-02-15T16:42:58.111Z,1023.91
2017-02-15T16:44:02.280Z,1023.9
2017-02-15T16:45:08.395Z,1023.87
2017-02-15T16:46:14.494Z,1023.89
2017-02-15T16:47:19.720Z,1023.9
2017-02-15T16:48:23.887Z,1023.9
2017-02-15T16:49:29.995Z,1023.86
2017-02-15T16:50:34.192Z,1023.87
2017-02-15T16:51:39.321Z,1023.89
2017-02-15T16:52:43.511Z,1023.84
2017-02-15T16:53:48.753Z,1023.8
2017-02-15T16:54:53.776Z,1023.81
2017-02-15T16:56:00.097Z,1023.81
2017-02-15T16:57:06.212Z,1023.8
2017-02-15T16:58:11.462Z,1023.77
2017-02-15T16:59:17.576Z,1023.79
2017-02-15T17:00:22.705Z,1023.82
2017-02-15T17:01:28.815Z,1023.76
2017-02-15T17:02:33.974Z,1023.73
2017-02-15T17:03:39.107Z,1023.74
2017-02-15T17:04:44.249Z,1023.72
2017-02-15T17:05:50.360Z,1023.7
2017-02-15T17:06:56.457Z,1023.68
2017-02-15T17:08:02.548Z,1023.71
2017-02-15T17:09:08.807Z,1023.65
2017-02-15T17:10:12.853Z,1023.65
2017-02-15T17:11:18.985Z,1023.66
2017-02-15T17:12:24.128Z,1023.69
2017-02-15T17:13:28.301Z,1023.68
2017-02-15T17:14:34.387Z,1023.66
2017-02-15T17:15:40.558Z,1023.66
2017-02-15T17:16:46.675Z,1023.67
2017-02-15T17:17:51.809Z,1023.69
2017-02-15T17:18:57.906Z,1023.71
2017-02-15T17:20:03.045Z,1023.69
2017-02-15T17:21:09.153Z,1023.73
2017-02-15T17:22:14.296Z,1023.73
2017-02-15T17:23:18.439Z,1023.69
2017-02-15T17:24:23.573Z,1023.7
2017-02-15T17:25:28.892Z,1023.71
2017-02-15T17:26:34.033Z,1023.68
2017-02-15T17:27:39.181Z,1023.71
2017-02-15T17:28:43.314Z,1023.71
2017-02-15T17:29:48.439Z,1023.71
2017-02-15T17:30:53.571Z,1023.74
2017-02-15T17:31:58.881Z,1023.7
2017-02-15T17:33:04.986Z,1023.7
2017-02-15T17:34:11.096Z,1023.7
2017-02-15T17:35:17.212Z,1023.74
2017-02-15T17:36:23.322Z,1023.74
2017-02-15T17:37:29.424Z,1023.73
2017-02-15T17:38:33.590Z,1023.74
2017-02-15T17:39:37.722Z,1023.77
2017-02-15T17:40:42.866Z,1023.77
2017-02-15T17:41:47.127Z,1023.72
2017-02-15T17:42:53.462Z,1023.76
2017-02-15T17:43:58.563Z,1023.72
2017-02-15T17:45:02.727Z,1023.7
2017-02-15T17:46:06.917Z,1023.72
2017-02-15T17:47:11.086Z,1023.73
2017-02-15T17:48:15.251Z,1023.67
2017-02-15T17:49:20.362Z,1023.69
2017-02-15T17:50:25.506Z,1023.7
2017-02-15T17:51:29.642Z,1023.68
2017-02-15T17:52:34.751Z,1023.69
2017-02-15T17:53:40.850Z,1023.7
2017-02-15T17:54:45.016Z,1023.68
2017-02-15T17:55:50.126Z,1023.65
2017-02-15T17:56:56.218Z,1023.67
2017-02-15T17:58:02.314Z,1023.7
2017-02-15T17:59:07.462Z,1023.68
2017-02-15T18:00:13.561Z,1023.68
2017-02-15T18:01:18.695Z,1023.68
2017-02-15T18:02:22.876Z,1023.66
2017-02-15T18:03:29.020Z,1023.64
2017-02-15T18:04:35.143Z,1023.65
2017-02-15T18:05:41.250Z,1023.62
2017-02-15T18:06:46.392Z,1023.63
2017-02-15T18:07:51.545Z,1023.6
2017-02-15T18:08:56.701Z,1023.56
2017-02-15T18:10:02.803Z,1023.6
2017-02-15T18:11:06.966Z,1023.58
2017-02-15T18:12:11.125Z,1023.59
2017-02-15T18:13:14.326Z,1023.63
2017-02-15T18:14:20.440Z,1023.59
2017-02-15T18:15:26.729Z,1023.61
2017-02-15T18:16:31.866Z,1023.61
2017-02-15T18:17:36.977Z,1023.63
2017-02-15T18:18:43.081Z,1023.59
2017-02-15T18:19:48.189Z,1023.58
2017-02-15T18:20:54.290Z,1023.55
2017-02-15T18:21:59.428Z,1023.56
2017-02-15T18:23:04.546Z,1023.54
2017-02-15T18:24:09.684Z,1023.51
2017-02-15T18:25:14.830Z,1023.52
2017-02-15T18:26:18.006Z,1023.53
2017-02-15T18:27:24.115Z,1023.53
2017-02-15T18:28:29.280Z,1023.51
2017-02-15T18:29:35.403Z,1023.54
2017-02-15T18:30:41.573Z,1023.56
2017-02-15T18:31:47.646Z,1023.53
2017-02-15T18:32:51.818Z,1023.53
2017-02-15T18:33:56.931Z,1023.52
2017-02-15T18:35:03.057Z,1023.52
2017-02-15T18:36:09.153Z,1023.49
2017-02-15T18:37:15.274Z,1023.56
2017-02-15T18:38:19.396Z,1023.55
2017-02-15T18:39:24.529Z,1023.56
2017-02-15T18:40:30.642Z,1023.55
2017-02-15T18:41:35.787Z,1023.51
2017-02-15T18:42:40.921Z,1023.53
2017-02-15T18:43:47.016Z,1023.57
2017-02-15T18:44:53.118Z,1023.5
2017-02-15T18:45:59.218Z,1023.49
2017-02-15T18:47:05.317Z,1023.48
2017-02-15T18:48:08.570Z,1023.46
2017-02-15T18:49:14.674Z,1023.47
2017-02-15T18:50:18.840Z,1023.47
2017-02-15T18:51:23.020Z,1023.46
2017-02-15T18:52:28.151Z,1023.48
2017-02-15T18:53:34.265Z,1023.45
2017-02-15T18:54:40.361Z,1023.45
2017-02-15T18:55:45.504Z,1023.46
2017-02-15T18:56:51.613Z,1023.41
2017-02-15T18:57:56.752Z,1023.44
2017-02-15T18:59:01.876Z,1023.47
2017-02-15T19:00:07.011Z,1023.41
2017-02-15T19:01:12.143Z,1023.44
2017-02-15T19:02:18.267Z,1023.42
2017-02-15T19:03:24.374Z,1023.46
2017-02-15T19:04:28.524Z,1023.41
2017-02-15T19:05:34.628Z,1023.43
2017-02-15T19:06:39.766Z,1023.46
2017-02-15T19:07:45.866Z,1023.38
2017-02-15T19:08:51.006Z,1023.37
2017-02-15T19:09:56.107Z,1023.39
2017-02-15T19:11:01.339Z,1023.38
2017-02-15T19:12:06.463Z,1023.36
2017-02-15T19:13:11.610Z,1023.35
2017-02-15T19:14:16.760Z,1023.38
2017-02-15T19:15:22.874Z,1023.33
2017-02-15T19:16:28.970Z,1023.31
2017-02-15T19:17:33.132Z,1023.34
2017-02-15T19:18:37.302Z,1023.33
2017-02-15T19:19:43.407Z,1023.31
2017-02-15T19:20:47.573Z,1023.29
2017-02-15T19:21:51.778Z,1023.36
2017-02-15T19:22:56.892Z,1023.33
2017-02-15T19:24:02.028Z,1023.34
2017-02-15T19:25:07.214Z,1023.3
2017-02-15T19:26:13.358Z,1023.32
2017-02-15T19:27:17.466Z,1023.34
2017-02-15T19:28:23.576Z,1023.34
2017-02-15T19:29:28.719Z,1023.35
2017-02-15T19:30:33.872Z,1023.35
2017-02-15T19:31:38.011Z,1023.32
2017-02-15T19:32:41.224Z,1023.38
2017-02-15T19:33:46.344Z,1023.35
2017-02-15T19:34:49.529Z,1023.39
2017-02-15T19:35:54.677Z,1023.4
2017-02-15T19:36:59.797Z,1023.39
2017-02-15T19:38:04.932Z,1023.37
2017-02-15T19:39:11.124Z,1023.38
2017-02-15T19:40:15.323Z,1023.34
2017-02-15T19:41:20.403Z,1023.33
2017-02-15T19:42:26.521Z,1023.36
2017-02-15T19:43:32.680Z,1023.32
2017-02-15T19:44:38.796Z,1023.31
2017-02-15T19:45:43.903Z,1023.33
2017-02-15T19:46:49.039Z,1023.34
2017-02-15T19:47:54.153Z,1023.32
2017-02-15T19:48:59.299Z,1023.33
2017-02-15T19:50:05.471Z,1023.35
2017-02-15T19:51:11.581Z,1023.32
2017-02-15T19:52:17.807Z,1023.33
2017-02-15T19:53:23.886Z,1023.34
2017-02-15T19:54:27.133Z,1023.35
2017-02-15T19:55:32.274Z,1023.39
2017-02-15T19:56:37.408Z,1023.38
2017-02-15T19:57:42.538Z,1023.37
2017-02-15T19:58:46.707Z,1023.38
2017-02-15T19:59:52.912Z,1023.37
2017-02-15T20:00:58.036Z,1023.37
2017-02-15T20:02:04.141Z,1023.38
2017-02-15T20:03:09.288Z,1023.34
2017-02-15T20:04:15.394Z,1023.38
2017-02-15T20:05:21.614Z,1023.33
2017-02-15T20:06:26.719Z,1023.35
2017-02-15T20:07:30.879Z,1023.38
2017-02-15T20:08:36.026Z,1023.37
2017-02-15T20:09:42.147Z,1023.33
2017-02-15T20:10:47.245Z,1023.38
2017-02-15T20:11:52.393Z,1023.39
2017-02-15T20:12:58.494Z,1023.44
2017-02-15T20:14:03.635Z,1023.45
2017-02-15T20:15:09.750Z,1023.42
2017-02-15T20:16:14.884Z,1023.45
2017-02-15T20:17:21.003Z,1023.44
2017-02-15T20:18:26.139Z,1023.44
2017-02-15T20:19:32.250Z,1023.41
2017-02-15T20:20:38.358Z,1023.42
2017-02-15T20:21:44.464Z,1023.4
2017-02-15T20:22:50.570Z,1023.45
2017-02-15T20:23:56.661Z,1023.4
2017-02-15T20:25:02.782Z,1023.47
2017-02-15T20:26:08.894Z,1023.47
2017-02-15T20:27:14.035Z,1023.51
2017-02-15T20:28:20.134Z,1023.49
2017-02-15T20:29:23.327Z,1023.54
2017-02-15T20:30:29.478Z,1023.52
2017-02-15T20:31:34.710Z,1023.52
2017-02-15T20:32:40.806Z,1023.55
2017-02-15T20:33:47.051Z,1023.56
2017-02-15T20:34:52.099Z,1023.52
2017-02-15T20:35:58.227Z,1023.55
2017-02-15T20:37:04.348Z,1023.54
2017-02-15T20:38:09.500Z,1023.58
2017-02-15T20:39:15.597Z,1023.55
2017-02-15T20:40:21.719Z,1023.58
2017-02-15T20:41:26.885Z,1023.54
2017-02-15T20:42:32.034Z,1023.52
2017-02-15T20:43:38.143Z,1023.53
2017-02-15T20:44:44.248Z,1023.53
2017-02-15T20:45:49.331Z,1023.51
2017-02-15T20:46:55.426Z,1023.52
2017-02-15T20:48:00.571Z,1023.51
2017-02-15T20:49:05.715Z,1023.51
2017-02-15T20:50:10.926Z,1023.5
2017-02-15T20:51:17.076Z,1023.52
2017-02-15T20:52:23.294Z,1023.49
2017-02-15T20:53:28.414Z,1023.48
2017-02-15T20:54:34.526Z,1023.55
2017-02-15T20:55:39.680Z,1023.54
2017-02-15T20:56:45.789Z,1023.52
2017-02-15T20:57:51.881Z,1023.49
2017-02-15T20:58:57.979Z,1023.48
2017-02-15T21:00:04.105Z,1023.45
2017-02-15T21:01:09.259Z,1023.42
2017-02-15T21:02:15.400Z,1023.44
2017-02-15T21:03:21.489Z,1023.5
2017-02-15T21:04:27.658Z,1023.49
2017-02-15T21:05:32.793Z,1023.48
2017-02-15T21:06:37.945Z,1023.47
2017-02-15T21:07:43.072Z,1023.49
2017-02-15T21:08:49.171Z,1023.45
2017-02-15T21:09:55.302Z,1023.43
2017-02-15T21:11:00.563Z,1023.46
2017-02-15T21:12:05.758Z,1023.49
2017-02-15T21:13:11.868Z,1023.48
2017-02-15T21:14:17.976Z,1023.44
2017-02-15T21:15:24.080Z,1023.45
2017-02-15T21:16:29.217Z,1023.5
2017-02-15T21:17:34.371Z,1023.45
2017-02-15T21:18:40.482Z,1023.45
2017-02-15T21:19:46.641Z,1023.5
2017-02-15T21:20:51.782Z,1023.51
2017-02-15T21:21:56.919Z,1023.49
2017-02-15T21:23:01.090Z,1023.48
2017-02-15T21:24:07.203Z,1023.5
2017-02-15T21:25:12.318Z,1023.49
2017-02-15T21:26:17.434Z,1023.49
2017-02-15T21:27:23.538Z,1023.46
2017-02-15T21:28:28.695Z,1023.49
2017-02-15T21:29:34.784Z,1023.48
2017-02-15T21:30:39.932Z,1023.45
2017-02-15T21:31:46.034Z,1023.43
2017-02-15T21:32:50.178Z,1023.46
2017-02-15T21:33:56.290Z,1023.47
2017-02-15T21:35:02.423Z,1023.47
2017-02-15T21:36:08.519Z,1023.52
2017-02-15T21:37:13.667Z,1023.49
2017-02-15T21:38:19.831Z,1023.49
2017-02-15T21:39:23.994Z,1023.52
2017-02-15T21:40:29.177Z,1023.51
2017-02-15T21:41:35.284Z,1023.52
2017-02-15T21:42:41.382Z,1023.53
2017-02-15T21:43:47.507Z,1023.55
2017-02-15T21:44:53.589Z,1023.49
2017-02-15T21:45:58.726Z,1023.5
2017-02-15T21:47:04.828Z,1023.51
2017-02-15T21:48:08.998Z,1023.52
2017-02-15T21:49:15.104Z,1023.54
2017-02-15T21:50:21.215Z,1023.55
2017-02-15T21:51:26.321Z,1023.54
2017-02-15T21:52:32.424Z,1023.55
2017-02-15T21:53:36.599Z,1023.51
2017-02-15T21:54:42.697Z,1023.53
2017-02-15T21:55:48.802Z,1023.49
2017-02-15T21:56:53.931Z,1023.49
2017-02-15T21:58:00.031Z,1023.46
2017-02-15T21:59:03.227Z,1023.45
2017-02-15T22:00:09.330Z,1023.42
2017-02-15T22:01:15.487Z,1023.42
2017-02-15T22:02:20.627Z,1023.43
2017-02-15T22:03:26.738Z,1023.41
2017-02-15T22:04:30.905Z,1023.38
2017-02-15T22:05:36.051Z,1023.35
2017-02-15T22:06:42.131Z,1023.35
2017-02-15T22:07:45.353Z,1023.36
2017-02-15T22:09:55.599Z,1023.27
2017-02-15T22:11:00.805Z,1023.32
2017-02-15T22:12:05.904Z,1023.26
2017-02-15T22:13:12.002Z,1023.28
2017-02-15T22:14:17.137Z,1023.27
2017-02-15T22:15:23.237Z,1023.27
2017-02-15T22:16:29.468Z,1023.27
2017-02-15T22:17:34.596Z,1023.28
2017-02-15T22:18:40.694Z,1023.23
2017-02-15T22:19:45.831Z,1023.27
2017-02-15T22:20:50.986Z,1023.24
2017-02-15T22:21:56.105Z,1023.23
2017-02-15T22:24:07.340Z,1023.27